This is the latest recevied weather packets stored in our database for station/object FW7644. If no packets are shown the sender has not sent any weather packets the latest 1 day(s).
| Time | Temp. | Humidity | Pressure | Rain* | Wind** | Luminosity | Snow |
|---|---|---|---|---|---|---|---|
| 1778097548 | 24.44° C | 69% | 1020.8 hPa | 0 mm | - | - | - |
| 1778096341 | 25° C | 66% | 1020.9 hPa | 0 mm | - | - | - |
| 1778095738 | 25.56° C | 64% | 1020.8 hPa | 0 mm | - | - | - |
| 1778095135 | 26.11° C | 62% | 1020.9 hPa | 0 mm | - | - | - |
| 1778093324 | 28.89° C | 51% | 1021 hPa | 0 mm | - | - | - |
| 1778092419 | 30.56° C | 48% | 1020.9 hPa | 0 mm | - | - | - |
| 1778091514 | 27.78° C | 56% | 1021.1 hPa | 0 mm | - | - | - |
| 1778091212 | 28.33° C | 51% | 1021.1 hPa | 0 mm | - | - | - |
| 1778089704 | 26.67° C | 54% | 1021.2 hPa | 0 mm | - | - | - |
| 1778087289 | 29.44° C | 47% | 1021.6 hPa | 0 mm | - | - | - |
| 1778086685 | 28.89° C | 47% | 1021.8 hPa | 0 mm | - | - | - |
| 1778086082 | 30.56° C | 43% | 1021.9 hPa | 0 mm | - | - | - |
| 1778084875 | 28.89° C | 46% | 1022.2 hPa | 0 mm | - | - | - |
| 1778083366 | 30° C | 44% | 1022.6 hPa | 0 mm | - | - | - |
| 1778083064 | 30° C | 44% | 1022.6 hPa | 0 mm | - | - | - |
| 1778081254 | 28.33° C | 50% | 1023.5 hPa | 0 mm | - | - | - |
| 1778080952 | 28.89° C | 49% | 1023.5 hPa | 0 mm | - | - | - |
| 1778080650 | 28.89° C | 49% | 1023.6 hPa | 0 mm | - | - | - |
| 1778078235 | 28.33° C | 54% | 1024.1 hPa | 0 mm | - | - | - |
| 1778077933 | 27.78° C | 55% | 1024.2 hPa | 0 mm | - | - | - |
| 1778077631 | 27.22° C | 57% | 1024.3 hPa | 0 mm | - | - | - |
| 1778077028 | 27.78° C | 52% | 1024.4 hPa | 0 mm | - | - | - |
| 1778076123 | 26.67° C | 59% | 1024.5 hPa | 0 mm | - | - | - |
| 1778075218 | 26.67° C | 58% | 1024.7 hPa | 0 mm | - | - | - |
| 1778073707 | 26.11° C | 64% | 1024.9 hPa | 0 mm | - | - | - |
* Rain latest hour (hover to see other rain measurements)
** Current wind speed in m/s (hover to see current wind gust speed)